Terminal Aerodrome Forecast
Issued by NWS Pocatello, ID

Home | Current Version | Previous Version | Text Only | Print | Product List | Glossary On
Versions: 1 2 3 4 5 6 7 8 9 10 11 12 13 14 15 16
000
FTUS45 KPIH 290200 AAA
TAFBYI
TAF AMD
KBYI 290210Z 2902/2924 21007KT P6SM FEW080 BKN120
     FM291000 23014KT P6SM VCSH SCT050 OVC080
     FM292300 25012G22KT P6SM SHRA BKN035 OVC050=

USA.gov is the U.S. government's official web portal to all federal, state and local government web resources and services.